createdAt,value
2022-08-22T00:00:24.189Z,16.01
2022-08-22T00:01:47.145Z,16.02
2022-08-22T00:02:42.335Z,18.20
2022-08-22T00:02:47.029Z,16.78
2022-08-22T00:02:52.803Z,18.24
2022-08-22T00:02:55.896Z,16.04
2022-08-22T00:02:58.023Z,16.07
2022-08-22T00:02:59.904Z,18.23
2022-08-22T00:03:00.233Z,18.25
2022-08-22T00:03:08.440Z,16.51
2022-08-22T00:03:10.809Z,16.21
2022-08-22T00:03:28.961Z,16.01
2022-08-22T00:04:48.957Z,16.00
2022-08-22T00:06:14.161Z,16.00
2022-08-22T00:07:19.087Z,16.00
2022-08-22T00:08:28.242Z,15.99
2022-08-22T00:09:31.858Z,15.95
2022-08-22T00:10:40.683Z,15.96
2022-08-22T00:11:49.403Z,15.93
2022-08-22T00:12:52.445Z,15.91
2022-08-22T00:14:15.647Z,15.90
2022-08-22T00:15:42.464Z,15.88
2022-08-22T00:16:51.724Z,15.87
2022-08-22T00:18:03.014Z,15.85
2022-08-22T00:19:17.165Z,15.84
2022-08-22T00:20:39.141Z,15.83
2022-08-22T00:21:44.156Z,15.82
2022-08-22T00:22:59.388Z,15.83
2022-08-22T00:24:25.799Z,15.83
2022-08-22T00:25:42.654Z,15.81
2022-08-22T00:26:46.723Z,15.82
2022-08-22T00:28:10.119Z,15.81
2022-08-22T00:29:15.586Z,15.79
2022-08-22T00:30:19.993Z,15.79
2022-08-22T00:31:26.609Z,15.78
2022-08-22T00:32:39.740Z,15.77
2022-08-22T00:33:47.020Z,15.75
2022-08-22T00:35:17.224Z,15.73
2022-08-22T00:36:31.230Z,15.72
2022-08-22T00:37:57.135Z,15.71
2022-08-22T00:39:03.024Z,15.69
2022-08-22T00:40:09.116Z,15.69
2022-08-22T00:41:23.511Z,15.66
2022-08-22T00:42:37.614Z,15.67
2022-08-22T00:44:01.353Z,15.66
2022-08-22T00:45:17.654Z,15.64
2022-08-22T00:46:23.487Z,15.63
2022-08-22T00:47:36.501Z,15.62
2022-08-22T00:48:42.505Z,15.60
2022-08-22T00:50:04.399Z,15.60
2022-08-22T00:51:19.818Z,15.58
2022-08-22T00:52:41.605Z,15.55
2022-08-22T00:53:46.764Z,15.57
2022-08-22T00:54:50.124Z,15.54
2022-08-22T00:55:53.147Z,15.53
2022-08-22T00:57:11.383Z,15.52
2022-08-22T00:58:14.983Z,15.51
2022-08-22T00:59:29.936Z,15.49
2022-08-22T01:00:39.663Z,15.46
2022-08-22T01:02:05.636Z,15.45
2022-08-22T01:03:08.898Z,15.43
2022-08-22T01:04:22.112Z,15.42
2022-08-22T01:05:25.149Z,15.38
2022-08-22T01:06:28.143Z,15.40
2022-08-22T01:07:43.446Z,15.38
2022-08-22T01:09:05.274Z,15.36
2022-08-22T01:10:14.863Z,15.34
2022-08-22T01:11:27.195Z,15.33
2022-08-22T01:12:46.048Z,15.32
2022-08-22T01:14:18.818Z,15.32
2022-08-22T01:15:27.160Z,15.32
2022-08-22T01:16:48.673Z,15.31
2022-08-22T01:18:05.069Z,15.30
2022-08-22T01:19:27.039Z,15.30
2022-08-22T01:20:47.620Z,15.28
2022-08-22T01:22:29.363Z,15.28
2022-08-22T01:23:50.915Z,15.26
2022-08-22T01:25:21.913Z,15.25
2022-08-22T01:26:40.640Z,15.25
2022-08-22T01:28:01.632Z,15.24
2022-08-22T01:29:35.873Z,15.23
2022-08-22T01:30:43.762Z,15.22
2022-08-22T01:31:49.680Z,15.22
2022-08-22T01:32:59.353Z,15.22
2022-08-22T01:34:21.227Z,15.22
2022-08-22T01:35:42.584Z,15.22
2022-08-22T01:36:53.250Z,15.23
2022-08-22T01:37:59.385Z,15.22
2022-08-22T01:39:02.647Z,15.23
2022-08-22T01:40:18.566Z,15.23
2022-08-22T01:41:22.960Z,15.24
2022-08-22T01:42:25.937Z,15.23
2022-08-22T01:43:59.548Z,15.25
2022-08-22T01:45:23.334Z,15.25
2022-08-22T01:46:34.134Z,15.26
2022-08-22T01:47:37.923Z,15.27
2022-08-22T01:48:56.593Z,15.27
2022-08-22T01:50:17.849Z,15.28
2022-08-22T01:51:39.862Z,15.29
2022-08-22T01:52:47.979Z,15.30
2022-08-22T01:53:57.897Z,15.30
2022-08-22T01:55:10.818Z,15.32
2022-08-22T01:56:18.569Z,15.32
2022-08-22T01:57:23.035Z,15.33
2022-08-22T01:58:28.477Z,15.32
2022-08-22T01:59:42.608Z,15.33
2022-08-22T02:00:58.071Z,15.31
2022-08-22T02:02:20.502Z,15.32
2022-08-22T02:03:27.828Z,15.30
2022-08-22T02:04:42.718Z,15.31
2022-08-22T02:06:21.062Z,15.29
2022-08-22T02:07:49.981Z,15.27
2022-08-22T02:09:20.362Z,15.26
2022-08-22T02:10:38.784Z,15.26
2022-08-22T02:11:50.429Z,15.24
2022-08-22T02:12:56.073Z,15.22
2022-08-22T02:14:03.620Z,15.21
2022-08-22T02:15:15.188Z,15.20
2022-08-22T02:16:20.871Z,15.18
2022-08-22T02:17:29.288Z,15.16
2022-08-22T02:18:42.311Z,15.15
2022-08-22T02:19:48.926Z,15.13
2022-08-22T02:21:04.250Z,15.12
2022-08-22T02:22:28.412Z,15.12
2022-08-22T02:23:37.228Z,15.11
2022-08-22T02:25:01.000Z,15.10
2022-08-22T02:26:13.906Z,15.09
2022-08-22T02:27:24.905Z,15.09
2022-08-22T02:28:57.335Z,15.06
2022-08-22T02:30:15.777Z,15.07
2022-08-22T02:31:23.428Z,15.06
2022-08-22T02:32:46.878Z,15.06
2022-08-22T02:33:54.054Z,15.04
2022-08-22T02:35:03.743Z,15.03
2022-08-22T02:36:23.148Z,15.03
2022-08-22T02:37:35.348Z,15.02
2022-08-22T02:38:48.999Z,15.03
2022-08-22T02:40:11.135Z,15.02
2022-08-22T02:41:22.983Z,15.02
2022-08-22T02:42:38.220Z,15.03
2022-08-22T02:43:53.069Z,15.03
2022-08-22T02:45:00.897Z,15.02
2022-08-22T02:46:24.294Z,15.02
2022-08-22T02:47:32.718Z,15.02
2022-08-22T02:48:48.864Z,15.02
2022-08-22T02:50:13.733Z,15.01
2022-08-22T02:51:24.517Z,15.02
2022-08-22T02:52:50.742Z,15.00
2022-08-22T02:54:02.294Z,15.00
2022-08-22T02:55:15.925Z,15.00
2022-08-22T02:56:22.519Z,14.99
2022-08-22T02:57:39.314Z,14.98
2022-08-22T02:58:42.448Z,14.98
2022-08-22T03:00:06.040Z,14.97
2022-08-22T03:01:29.975Z,14.95
2022-08-22T03:02:37.239Z,14.97
2022-08-22T03:03:45.185Z,14.96
2022-08-22T03:04:55.183Z,14.94
2022-08-22T03:06:01.589Z,14.95
2022-08-22T03:07:11.853Z,14.95
2022-08-22T03:08:21.818Z,14.94
2022-08-22T03:09:35.369Z,14.93
2022-08-22T03:10:41.903Z,14.92
2022-08-22T03:11:51.353Z,14.91
2022-08-22T03:13:17.442Z,14.91
2022-08-22T03:14:28.366Z,14.91
2022-08-22T03:15:34.408Z,14.88
2022-08-22T03:16:58.542Z,14.89
2022-08-22T03:18:20.046Z,14.87
2022-08-22T03:19:28.923Z,14.85
2022-08-22T03:20:44.249Z,14.83
2022-08-22T03:22:06.955Z,14.82
2022-08-22T03:23:24.275Z,14.81
2022-08-22T03:24:27.218Z,14.80
2022-08-22T03:25:34.064Z,14.80
2022-08-22T03:26:58.788Z,14.79
2022-08-22T03:28:21.863Z,14.79
2022-08-22T03:29:30.943Z,14.77
2022-08-22T03:30:37.044Z,14.77
2022-08-22T03:31:49.344Z,14.77
2022-08-22T03:32:52.914Z,14.77
2022-08-22T03:34:14.749Z,14.78
2022-08-22T03:35:23.839Z,14.78
2022-08-22T03:36:28.664Z,14.78
2022-08-22T03:37:40.873Z,14.78
2022-08-22T03:38:56.472Z,14.78
2022-08-22T03:40:18.494Z,14.78
2022-08-22T03:41:24.618Z,14.77
2022-08-22T03:42:46.244Z,14.75
2022-08-22T03:43:55.508Z,14.74
2022-08-22T03:45:07.024Z,14.73
2022-08-22T03:46:13.099Z,14.70
2022-08-22T03:47:20.838Z,14.68
2022-08-22T03:48:44.103Z,14.67
2022-08-22T03:50:11.234Z,14.65
2022-08-22T03:51:21.524Z,14.63
2022-08-22T03:53:03.193Z,14.62
2022-08-22T03:54:15.083Z,14.62
2022-08-22T03:55:30.907Z,14.62
2022-08-22T03:56:33.919Z,14.61
2022-08-22T03:57:55.660Z,14.62
2022-08-22T03:58:58.845Z,14.61
2022-08-22T04:00:10.383Z,14.62
2022-08-22T04:01:33.745Z,14.62
2022-08-22T04:02:44.246Z,14.61
2022-08-22T04:04:07.152Z,14.61
2022-08-22T04:05:34.037Z,14.62
2022-08-22T04:07:28.320Z,14.61
2022-08-22T04:08:55.809Z,14.64
2022-08-22T04:10:07.494Z,14.65
2022-08-22T04:11:19.293Z,14.65
2022-08-22T04:12:22.320Z,14.63
2022-08-22T04:13:43.700Z,14.64
2022-08-22T04:15:08.447Z,14.63
2022-08-22T04:16:25.234Z,14.64
2022-08-22T04:17:43.966Z,14.61
2022-08-22T04:19:11.576Z,14.63
2022-08-22T04:20:26.571Z,14.64
2022-08-22T04:21:29.539Z,14.64
2022-08-22T04:22:51.456Z,14.61
2022-08-22T04:24:09.439Z,14.64
2022-08-22T04:25:17.447Z,14.65
2022-08-22T04:26:26.493Z,14.66
2022-08-22T04:27:34.940Z,14.67
2022-08-22T04:28:40.256Z,14.67
2022-08-22T04:29:47.264Z,14.67
2022-08-22T04:30:53.269Z,14.69
2022-08-22T04:32:19.576Z,14.69
2022-08-22T04:33:26.775Z,14.69
2022-08-22T04:34:36.051Z,14.70
2022-08-22T04:35:43.311Z,14.71
2022-08-22T04:36:50.958Z,14.71
2022-08-22T04:37:59.031Z,14.72
2022-08-22T04:39:05.333Z,14.71
2022-08-22T04:40:24.674Z,14.69
2022-08-22T04:41:28.443Z,14.70
2022-08-22T04:42:35.518Z,14.71
2022-08-22T04:43:46.990Z,14.73
2022-08-22T04:44:49.932Z,14.74
2022-08-22T04:46:05.342Z,14.77
2022-08-22T04:47:20.712Z,14.79
2022-08-22T04:48:35.579Z,14.79
2022-08-22T04:49:43.897Z,14.81
2022-08-22T04:50:56.913Z,14.82
2022-08-22T04:52:12.379Z,14.85
2022-08-22T04:53:15.457Z,14.87
2022-08-22T04:54:31.199Z,14.89
2022-08-22T04:55:47.225Z,14.92
2022-08-22T04:56:53.437Z,14.95
2022-08-22T04:58:09.118Z,14.98
2022-08-22T04:59:16.516Z,15.01
2022-08-22T05:00:19.638Z,15.03
2022-08-22T05:01:41.424Z,15.05
2022-08-22T05:02:49.358Z,15.07
2022-08-22T05:03:58.740Z,15.10
2022-08-22T05:05:13.228Z,15.10
2022-08-22T05:06:19.293Z,15.14
2022-08-22T05:07:27.024Z,15.16
2022-08-22T05:08:39.899Z,15.19
2022-08-22T05:09:45.862Z,15.20
2022-08-22T05:10:50.628Z,15.22
2022-08-22T05:11:55.708Z,15.23
2022-08-22T05:13:02.216Z,15.25
2022-08-22T05:14:27.563Z,15.26
2022-08-22T05:15:36.808Z,15.27
2022-08-22T05:16:42.356Z,15.27
2022-08-22T05:17:47.391Z,15.30
2022-08-22T05:18:55.422Z,15.31
2022-08-22T05:20:02.361Z,15.32
2022-08-22T05:21:08.144Z,15.33
2022-08-22T05:22:19.447Z,15.34
2022-08-22T05:23:36.182Z,15.35
2022-08-22T05:24:42.593Z,15.28
2022-08-22T05:25:48.775Z,15.37
2022-08-22T05:26:53.939Z,15.39
2022-08-22T05:28:20.928Z,15.40
2022-08-22T05:29:27.340Z,15.41
2022-08-22T05:30:31.574Z,15.42
2022-08-22T05:31:39.354Z,15.43
2022-08-22T05:32:52.170Z,15.44
2022-08-22T05:33:58.690Z,15.45
2022-08-22T05:35:02.483Z,15.45
2022-08-22T05:36:11.158Z,15.47
2022-08-22T05:37:25.542Z,15.49
2022-08-22T05:38:31.956Z,15.50
2022-08-22T05:39:37.131Z,15.50
2022-08-22T05:40:41.120Z,15.51
2022-08-22T05:41:45.009Z,15.52
2022-08-22T05:42:51.338Z,15.53
2022-08-22T05:43:55.068Z,15.55
2022-08-22T05:44:58.220Z,15.55
2022-08-22T05:46:01.618Z,15.58
2022-08-22T05:47:04.921Z,15.60
2022-08-22T05:48:12.405Z,15.60
2022-08-22T05:49:22.615Z,15.61
2022-08-22T05:50:31.748Z,15.62
2022-08-22T05:51:34.940Z,15.62
2022-08-22T05:53:00.265Z,15.61
2022-08-22T05:54:21.876Z,15.60
2022-08-22T05:55:37.138Z,15.60
2022-08-22T05:56:44.174Z,15.60
2022-08-22T05:57:52.486Z,15.60
2022-08-22T05:59:03.095Z,15.60
2022-08-22T06:00:13.319Z,15.57
2022-08-22T06:01:33.868Z,15.61
2022-08-22T06:02:56.294Z,15.61
2022-08-22T06:04:25.794Z,15.61
2022-08-22T06:05:32.038Z,15.62
2022-08-22T06:06:40.878Z,15.63
2022-08-22T06:07:46.725Z,15.64
2022-08-22T06:08:56.318Z,15.65
2022-08-22T06:10:02.411Z,15.66
2022-08-22T06:11:33.661Z,15.65
2022-08-22T06:12:43.466Z,15.63
2022-08-22T06:14:08.328Z,15.63
2022-08-22T06:15:12.102Z,15.62
2022-08-22T06:16:17.213Z,15.62
2022-08-22T06:17:41.543Z,15.62
2022-08-22T06:18:45.428Z,15.62
2022-08-22T06:19:49.905Z,15.63
2022-08-22T06:20:55.569Z,15.63
2022-08-22T06:21:58.895Z,15.65
2022-08-22T06:23:03.126Z,15.64
2022-08-22T06:24:08.819Z,15.63
2022-08-22T06:25:14.110Z,15.63
2022-08-22T06:26:20.463Z,15.65
2022-08-22T06:27:34.419Z,15.66
2022-08-22T06:28:55.670Z,15.68
2022-08-22T06:30:00.742Z,15.70
2022-08-22T06:31:06.403Z,15.70
2022-08-22T06:32:15.168Z,15.73
2022-08-22T06:33:23.102Z,15.75
2022-08-22T06:34:34.628Z,15.77
2022-08-22T06:35:59.842Z,15.77
2022-08-22T06:37:04.814Z,15.78
2022-08-22T06:38:08.426Z,15.79
2022-08-22T06:39:30.333Z,15.80
2022-08-22T06:40:33.890Z,15.83
2022-08-22T06:41:41.674Z,15.83
2022-08-22T06:42:48.137Z,15.84
2022-08-22T06:43:54.905Z,15.85
2022-08-22T06:45:02.828Z,15.86
2022-08-22T06:46:07.695Z,15.86
2022-08-22T06:47:13.797Z,15.86
2022-08-22T06:48:18.542Z,15.87
2022-08-22T06:49:23.559Z,15.88
2022-08-22T06:50:34.534Z,15.87
2022-08-22T06:51:38.915Z,15.87
2022-08-22T06:52:57.803Z,15.87
2022-08-22T06:54:03.809Z,15.86
2022-08-22T06:55:08.581Z,15.86
2022-08-22T06:56:22.414Z,15.85
2022-08-22T06:57:37.606Z,15.86
2022-08-22T06:58:46.144Z,15.85
2022-08-22T06:59:49.747Z,15.83
2022-08-22T07:01:05.658Z,15.84
2022-08-22T07:02:30.154Z,15.84
2022-08-22T07:03:41.550Z,15.85
2022-08-22T07:04:44.813Z,15.86
2022-08-22T07:05:49.625Z,15.87
2022-08-22T07:06:54.671Z,15.88
2022-08-22T07:07:58.170Z,15.90
2022-08-22T07:09:05.743Z,15.90
2022-08-22T07:10:12.998Z,15.88
2022-08-22T07:11:18.772Z,15.88
2022-08-22T07:12:23.469Z,15.88
2022-08-22T07:13:28.552Z,15.89
2022-08-22T07:14:38.749Z,15.91
2022-08-22T07:15:51.105Z,15.88
2022-08-22T07:16:56.585Z,15.88
2022-08-22T07:18:01.371Z,15.90
2022-08-22T07:19:04.718Z,15.91
2022-08-22T07:20:23.574Z,15.93
2022-08-22T07:21:28.314Z,15.94
2022-08-22T07:22:35.276Z,15.95
2022-08-22T07:23:40.812Z,15.97
2022-08-22T07:24:47.608Z,15.97
2022-08-22T07:25:58.355Z,15.97
2022-08-22T07:27:09.007Z,15.96
2022-08-22T07:28:22.363Z,15.97
2022-08-22T07:30:00.623Z,15.93
2022-08-22T07:31:17.899Z,15.92
2022-08-22T07:32:25.543Z,15.93
2022-08-22T07:33:39.770Z,15.94
2022-08-22T07:35:04.534Z,15.92
2022-08-22T07:36:29.589Z,15.90
2022-08-22T07:37:53.113Z,15.87
2022-08-22T07:39:17.547Z,15.85
2022-08-22T07:40:48.581Z,15.87
2022-08-22T07:42:00.641Z,15.82
2022-08-22T07:43:10.753Z,15.85
2022-08-22T07:44:19.148Z,15.84
2022-08-22T07:45:32.247Z,15.83
2022-08-22T07:47:04.731Z,15.77
2022-08-22T07:48:29.052Z,15.78
2022-08-22T07:49:37.615Z,15.74
2022-08-22T07:50:46.227Z,15.74
2022-08-22T07:52:01.854Z,15.73
2022-08-22T07:53:19.082Z,15.71
2022-08-22T07:54:43.279Z,15.72
2022-08-22T07:55:49.478Z,15.70
2022-08-22T07:56:56.874Z,15.69
2022-08-22T07:58:04.324Z,15.69
2022-08-22T07:59:13.220Z,15.70
2022-08-22T08:00:18.551Z,15.71
2022-08-22T08:01:22.934Z,15.70
2022-08-22T08:02:26.209Z,15.72
2022-08-22T08:03:30.707Z,15.72
2022-08-22T08:04:40.058Z,15.69
2022-08-22T08:05:45.234Z,15.68
2022-08-22T08:06:50.929Z,15.70
2022-08-22T08:07:54.902Z,15.67
2022-08-22T08:08:59.896Z,15.66
2022-08-22T08:10:12.483Z,15.66
2022-08-22T08:11:17.399Z,15.63
2022-08-22T08:12:33.447Z,15.61
2022-08-22T08:13:42.502Z,15.58
2022-08-22T08:14:48.762Z,15.56
2022-08-22T08:15:52.279Z,15.52
2022-08-22T08:17:01.404Z,15.49
2022-08-22T08:18:09.188Z,15.48
2022-08-22T08:19:12.998Z,15.46
2022-08-22T08:20:17.841Z,15.36
2022-08-22T08:21:42.879Z,15.41
2022-08-22T08:22:46.535Z,15.39
2022-08-22T08:23:49.784Z,15.40
2022-08-22T08:24:55.563Z,15.41
2022-08-22T08:26:11.821Z,15.42
2022-08-22T08:27:36.989Z,15.44
2022-08-22T08:28:44.421Z,15.46
2022-08-22T08:30:15.607Z,15.49
2022-08-22T08:31:30.530Z,15.52
2022-08-22T08:32:35.308Z,15.54
2022-08-22T08:33:41.108Z,15.57
2022-08-22T08:34:44.661Z,15.57
2022-08-22T08:36:02.735Z,15.59
2022-08-22T08:37:13.810Z,15.51
2022-08-22T08:38:19.108Z,15.58
2022-08-22T08:39:35.099Z,15.60
2022-08-22T08:40:44.474Z,15.66
2022-08-22T08:41:54.752Z,15.72
2022-08-22T08:43:31.038Z,15.76
2022-08-22T08:44:46.233Z,15.82
2022-08-22T08:46:08.233Z,15.85
2022-08-22T08:47:17.004Z,15.93
2022-08-22T08:48:25.888Z,15.99
2022-08-22T08:49:50.632Z,16.08
2022-08-22T08:51:06.023Z,16.20
2022-08-22T08:52:09.158Z,16.28
2022-08-22T08:53:51.371Z,16.34
2022-08-22T08:54:57.460Z,16.43
2022-08-22T08:56:15.622Z,16.47
2022-08-22T08:57:45.729Z,16.51
2022-08-22T08:59:00.585Z,16.55
2022-08-22T09:00:14.594Z,16.56
2022-08-22T09:02:42.632Z,16.52
2022-08-22T09:04:02.583Z,16.49
2022-08-22T09:05:19.577Z,16.47
2022-08-22T09:06:42.590Z,16.46
2022-08-22T09:08:11.671Z,16.46
2022-08-22T09:09:29.541Z,16.47
2022-08-22T09:10:35.379Z,16.49
2022-08-22T09:12:01.763Z,16.48
2022-08-22T09:13:20.049Z,16.45
2022-08-22T09:14:41.467Z,16.49
2022-08-22T09:16:05.517Z,16.53
2022-08-22T09:17:08.764Z,16.54
2022-08-22T09:18:53.293Z,16.58
2022-08-22T09:20:19.481Z,16.54
2022-08-22T09:21:30.563Z,16.53
2022-08-22T09:22:58.635Z,16.52
2022-08-22T09:24:21.268Z,16.50
2022-08-22T09:25:29.652Z,16.49
2022-08-22T09:26:57.080Z,16.48
2022-08-22T09:28:13.989Z,16.47
2022-08-22T09:29:35.587Z,16.45
2022-08-22T09:31:21.932Z,16.50
2022-08-22T09:32:33.913Z,16.58
2022-08-22T09:33:51.836Z,16.63
2022-08-22T09:34:57.112Z,16.69
2022-08-22T09:36:12.227Z,16.67
2022-08-22T09:37:24.068Z,16.68
2022-08-22T09:38:47.902Z,16.71
2022-08-22T09:39:57.936Z,16.65
2022-08-22T09:40:16.149Z,16.53
2022-08-22T09:41:20.620Z,16.67
2022-08-22T09:42:23.758Z,16.64
2022-08-22T09:43:36.771Z,16.63
2022-08-22T09:44:40.782Z,16.63
2022-08-22T09:46:07.067Z,16.62
2022-08-22T09:47:24.562Z,16.57
2022-08-22T09:48:36.708Z,16.54
2022-08-22T09:49:50.563Z,16.54
2022-08-22T09:51:13.557Z,16.53
2022-08-22T09:52:35.712Z,16.53
2022-08-22T09:53:45.709Z,16.52
2022-08-22T09:55:02.439Z,16.50
2022-08-22T09:56:20.993Z,16.48
2022-08-22T09:57:41.290Z,16.42
2022-08-22T09:58:58.002Z,16.44
2022-08-22T10:00:04.076Z,16.44
2022-08-22T10:01:16.415Z,16.42
2022-08-22T10:02:25.403Z,16.41
2022-08-22T10:03:47.751Z,16.39
2022-08-22T10:04:53.913Z,16.37
2022-08-22T10:06:02.388Z,16.37
2022-08-22T10:07:12.179Z,16.39
2022-08-22T10:08:38.763Z,16.39
2022-08-22T10:09:48.968Z,16.38
2022-08-22T10:11:08.287Z,16.37
2022-08-22T10:12:13.282Z,16.38
2022-08-22T10:13:19.320Z,16.41
2022-08-22T10:14:52.681Z,16.45
2022-08-22T10:15:59.703Z,16.44
2022-08-22T10:17:21.905Z,16.43
2022-08-22T10:18:37.623Z,16.33
2022-08-22T10:19:53.133Z,16.29
2022-08-22T10:20:56.090Z,16.28
2022-08-22T10:22:10.138Z,16.24
2022-08-22T10:23:13.232Z,16.21
2022-08-22T10:24:49.898Z,16.16
2022-08-22T10:25:57.149Z,16.14
2022-08-22T10:27:06.371Z,16.11
2022-08-22T10:28:10.604Z,16.08
2022-08-22T10:29:32.709Z,16.08
2022-08-22T10:30:55.083Z,16.02
2022-08-22T10:32:02.848Z,16.05
2022-08-22T10:33:09.149Z,16.03
2022-08-22T10:34:20.648Z,16.02
2022-08-22T10:35:28.973Z,16.05
2022-08-22T10:36:46.348Z,16.05
2022-08-22T10:37:55.198Z,16.10
2022-08-22T10:39:00.330Z,16.15
2022-08-22T10:40:13.404Z,16.17
2022-08-22T10:41:16.584Z,16.21
2022-08-22T10:42:59.465Z,16.24
2022-08-22T10:44:17.695Z,16.29
2022-08-22T10:45:36.930Z,16.33
2022-08-22T10:46:52.282Z,16.37
2022-08-22T10:47:58.200Z,16.39
2022-08-22T10:49:08.058Z,16.38
2022-08-22T10:50:20.158Z,16.37
2022-08-22T10:51:36.705Z,16.37
2022-08-22T10:52:46.100Z,16.38
2022-08-22T10:53:56.148Z,16.37
2022-08-22T10:55:14.817Z,16.38
2022-08-22T10:56:21.704Z,16.41
2022-08-22T10:57:43.205Z,16.44
2022-08-22T10:58:46.284Z,16.45
2022-08-22T10:59:52.162Z,16.38
2022-08-22T11:01:00.236Z,16.35
2022-08-22T11:02:18.815Z,16.35
2022-08-22T11:03:29.019Z,16.37
2022-08-22T11:04:38.958Z,16.36
2022-08-22T11:05:43.690Z,16.34
2022-08-22T11:07:13.369Z,16.37
2022-08-22T11:08:22.344Z,16.39
2022-08-22T11:09:30.292Z,16.42
2022-08-22T11:10:59.245Z,16.41
2022-08-22T11:12:04.403Z,16.39
2022-08-22T11:13:07.832Z,16.40
2022-08-22T11:14:13.708Z,16.39
2022-08-22T11:15:26.234Z,16.40
2022-08-22T11:16:54.969Z,16.42
2022-08-22T11:18:12.903Z,16.44
2022-08-22T11:19:26.469Z,16.48
2022-08-22T11:20:48.590Z,16.54
2022-08-22T11:22:10.598Z,16.55
2022-08-22T11:23:22.845Z,16.55
2022-08-22T11:24:35.285Z,16.54
2022-08-22T11:25:41.486Z,16.54
2022-08-22T11:26:50.134Z,16.52
2022-08-22T11:27:53.627Z,16.51
2022-08-22T11:29:22.702Z,16.46
2022-08-22T11:30:31.724Z,16.40
2022-08-22T11:31:47.286Z,16.37
2022-08-22T11:33:13.759Z,16.36
2022-08-22T11:34:32.074Z,16.33
2022-08-22T11:35:49.853Z,16.34
2022-08-22T11:36:56.755Z,16.36
2022-08-22T11:38:03.060Z,16.37
2022-08-22T11:39:19.420Z,16.30
2022-08-22T11:40:34.378Z,16.23
2022-08-22T11:41:40.345Z,16.23
2022-08-22T11:42:49.437Z,16.20
2022-08-22T11:43:59.605Z,16.21
2022-08-22T11:45:07.452Z,16.22
2022-08-22T11:46:19.794Z,16.22
2022-08-22T11:47:27.136Z,16.24
2022-08-22T11:48:37.709Z,16.25
2022-08-22T11:49:46.702Z,16.22
2022-08-22T11:50:59.716Z,16.17
2022-08-22T11:52:06.944Z,16.10
2022-08-22T11:53:25.405Z,16.09
2022-08-22T11:54:59.398Z,16.09
2022-08-22T11:56:20.691Z,16.08
2022-08-22T11:57:47.336Z,16.06
2022-08-22T11:59:01.513Z,16.02
2022-08-22T12:00:05.959Z,16.02
2022-08-22T12:01:17.523Z,16.03
2022-08-22T12:02:21.547Z,16.03
2022-08-22T12:03:24.549Z,16.04
2022-08-22T12:04:32.822Z,16.05
2022-08-22T12:05:43.305Z,16.09
2022-08-22T12:06:50.307Z,16.12
2022-08-22T12:07:56.861Z,16.14
2022-08-22T12:09:21.307Z,16.13
2022-08-22T12:10:30.281Z,16.12
2022-08-22T12:11:44.904Z,16.10
2022-08-22T12:12:48.730Z,16.09
2022-08-22T12:14:06.129Z,16.08
2022-08-22T12:15:21.577Z,16.05
2022-08-22T12:16:37.817Z,16.02
2022-08-22T12:17:55.250Z,16.00
2022-08-22T12:19:09.428Z,15.93
2022-08-22T12:20:17.167Z,15.95
2022-08-22T12:21:40.787Z,15.94
2022-08-22T12:22:56.509Z,15.92
2022-08-22T12:24:26.217Z,15.91
2022-08-22T12:25:32.556Z,15.85
2022-08-22T12:27:08.267Z,15.82
2022-08-22T12:28:29.787Z,15.78
2022-08-22T12:29:55.939Z,15.75
2022-08-22T12:31:17.022Z,15.75
2022-08-22T12:32:27.799Z,15.73
2022-08-22T12:33:39.794Z,15.72
2022-08-22T12:34:51.785Z,15.72
2022-08-22T12:36:17.868Z,15.73
2022-08-22T12:37:44.908Z,15.75
2022-08-22T12:39:04.479Z,15.75
2022-08-22T12:40:13.812Z,15.74
2022-08-22T12:41:27.979Z,15.75
2022-08-22T12:42:41.929Z,15.71
2022-08-22T12:43:49.486Z,15.68
2022-08-22T12:45:05.127Z,15.66
2022-08-22T12:46:13.387Z,15.65
2022-08-22T12:47:25.481Z,15.66
2022-08-22T12:48:47.601Z,15.65
2022-08-22T12:49:59.125Z,15.64
2022-08-22T12:51:18.325Z,15.65
2022-08-22T12:52:30.220Z,15.67
2022-08-22T12:53:33.206Z,15.66
2022-08-22T12:54:43.978Z,15.67
2022-08-22T12:55:49.853Z,15.66
2022-08-22T12:57:05.346Z,15.65
2022-08-22T12:58:36.577Z,15.64
2022-08-22T12:59:43.432Z,15.63
2022-08-22T13:00:48.709Z,15.58
2022-08-22T13:01:56.926Z,15.57
2022-08-22T13:03:02.969Z,15.53
2022-08-22T13:04:12.897Z,15.50
2022-08-22T13:05:40.566Z,15.49
2022-08-22T13:06:51.619Z,15.46
2022-08-22T13:08:01.209Z,15.38
2022-08-22T13:09:18.806Z,15.34
2022-08-22T13:10:38.313Z,15.30
2022-08-22T13:11:42.871Z,15.26
2022-08-22T13:12:47.894Z,15.25
2022-08-22T13:13:56.729Z,15.24
2022-08-22T13:15:22.136Z,15.20
2022-08-22T13:16:34.908Z,15.19
2022-08-22T13:17:43.384Z,15.17
2022-08-22T13:19:13.434Z,15.13
2022-08-22T13:20:37.029Z,15.10
2022-08-22T13:21:44.106Z,15.08
2022-08-22T13:22:48.016Z,15.07
2022-08-22T13:23:56.259Z,15.04
2022-08-22T13:24:59.211Z,14.98
2022-08-22T13:26:02.306Z,14.87
2022-08-22T13:27:22.564Z,14.93
2022-08-22T13:28:27.392Z,14.94
2022-08-22T13:29:42.851Z,14.91
2022-08-22T13:30:46.690Z,14.91
2022-08-22T13:31:53.201Z,14.91
2022-08-22T13:33:11.026Z,14.91
2022-08-22T13:34:34.833Z,14.90
2022-08-22T13:35:51.832Z,14.90
2022-08-22T13:36:58.768Z,14.92
2022-08-22T13:38:07.253Z,14.90
2022-08-22T13:39:15.354Z,14.90
2022-08-22T13:40:27.617Z,14.91
2022-08-22T13:41:38.248Z,14.92
2022-08-22T13:42:49.361Z,14.93
2022-08-22T13:43:59.904Z,14.93
2022-08-22T13:45:05.367Z,14.94
2022-08-22T13:46:10.947Z,14.94
2022-08-22T13:47:16.074Z,14.92
2022-08-22T13:48:22.590Z,14.92
2022-08-22T13:49:39.889Z,14.92
2022-08-22T13:51:01.116Z,14.88
2022-08-22T13:52:29.090Z,14.86
2022-08-22T13:53:41.569Z,14.87
2022-08-22T13:54:52.208Z,14.91
2022-08-22T13:56:00.044Z,14.93
2022-08-22T13:57:23.972Z,14.92
2022-08-22T13:58:42.278Z,14.93
2022-08-22T14:00:06.272Z,14.94
2022-08-22T14:01:20.333Z,14.93
2022-08-22T14:02:30.777Z,14.94
2022-08-22T14:03:39.782Z,14.94
2022-08-22T14:04:44.220Z,14.94
2022-08-22T14:05:53.201Z,14.93
2022-08-22T14:06:59.259Z,14.93
2022-08-22T14:08:20.455Z,14.92
2022-08-22T14:09:38.824Z,14.91
2022-08-22T14:10:54.999Z,14.90
2022-08-22T14:12:12.137Z,14.90
2022-08-22T14:13:31.180Z,14.87
2022-08-22T14:14:36.633Z,14.86
2022-08-22T14:15:45.294Z,14.89
2022-08-22T14:16:51.493Z,14.88
2022-08-22T14:18:10.743Z,14.88
2022-08-22T14:19:53.323Z,14.88
2022-08-22T14:21:17.831Z,14.91
2022-08-22T14:22:31.716Z,14.92
2022-08-22T14:23:35.659Z,14.93
2022-08-22T14:24:45.630Z,14.94
2022-08-22T14:25:51.402Z,14.94
2022-08-22T14:27:06.597Z,14.99
2022-08-22T14:28:20.914Z,14.99
2022-08-22T14:29:26.430Z,14.97
2022-08-22T14:30:31.993Z,14.97
2022-08-22T14:31:35.875Z,14.99
2022-08-22T14:32:42.047Z,14.99
2022-08-22T14:34:10.480Z,15.02
2022-08-22T14:35:35.122Z,15.07
2022-08-22T14:36:55.013Z,15.08
2022-08-22T14:38:02.060Z,15.12
2022-08-22T14:39:12.071Z,15.14
2022-08-22T14:40:30.268Z,15.18
2022-08-22T14:41:52.606Z,15.22
2022-08-22T14:43:07.892Z,15.24
2022-08-22T14:44:19.664Z,15.22
2022-08-22T14:45:28.549Z,15.21
2022-08-22T14:46:44.944Z,15.20
2022-08-22T14:48:14.103Z,15.19
2022-08-22T14:49:48.904Z,15.20
2022-08-22T14:50:54.748Z,15.21
2022-08-22T14:52:01.976Z,15.22
2022-08-22T14:53:09.765Z,15.21
2022-08-22T14:54:21.419Z,15.19
2022-08-22T14:55:27.224Z,15.20
2022-08-22T14:56:36.846Z,15.19
2022-08-22T14:57:45.862Z,15.19
2022-08-22T14:58:56.041Z,15.18
2022-08-22T14:59:59.273Z,15.18
2022-08-22T15:01:10.592Z,15.16
2022-08-22T15:02:23.327Z,15.18
2022-08-22T15:03:38.039Z,15.19
2022-08-22T15:04:46.084Z,15.19
2022-08-22T15:05:52.624Z,15.19
2022-08-22T15:06:58.542Z,15.20
2022-08-22T15:08:01.829Z,15.21
2022-08-22T15:09:15.495Z,15.21
2022-08-22T15:10:27.863Z,15.19
2022-08-22T15:11:36.315Z,15.19
2022-08-22T15:12:49.941Z,15.20
2022-08-22T15:13:55.679Z,15.20
2022-08-22T15:15:00.679Z,15.19
2022-08-22T15:16:15.026Z,15.20
2022-08-22T15:17:44.183Z,15.22
2022-08-22T15:18:51.942Z,15.20
2022-08-22T15:20:05.175Z,15.17
2022-08-22T15:21:30.300Z,15.11
2022-08-22T15:22:35.156Z,15.04
2022-08-22T15:23:45.129Z,15.07
2022-08-22T15:24:58.115Z,15.06
2022-08-22T15:26:03.731Z,15.04
2022-08-22T15:27:07.122Z,15.02
2022-08-22T15:28:14.458Z,15.02
2022-08-22T15:29:32.159Z,14.99
2022-08-22T15:30:44.482Z,14.97
2022-08-22T15:31:52.150Z,14.94